createdAt,value
2018-04-12T00:01:44.328Z,14.00
2018-04-12T00:04:12.203Z,14.00
2018-04-12T00:06:40.096Z,14.00
2018-04-12T00:09:07.570Z,14.00
2018-04-12T00:11:35.092Z,14.10
2018-04-12T00:14:02.666Z,14.10
2018-04-12T00:16:30.638Z,14.10
2018-04-12T00:18:58.519Z,14.10
2018-04-12T00:21:26.386Z,14.10
2018-04-12T00:23:54.263Z,14.10
2018-04-12T00:26:22.240Z,14.10
2018-04-12T00:28:50.115Z,14.10
2018-04-12T00:31:17.624Z,14.10
2018-04-12T00:33:45.106Z,14.00
2018-04-12T00:36:12.572Z,14.00
2018-04-12T00:38:40.065Z,14.00
2018-04-12T00:41:08.077Z,14.00
2018-04-12T00:43:35.571Z,14.00
2018-04-12T00:46:03.135Z,13.90
2018-04-12T00:48:30.601Z,13.90
2018-04-12T00:50:58.070Z,13.80
2018-04-12T00:53:37.866Z,13.80
2018-04-12T00:56:05.328Z,13.80
2018-04-12T00:58:32.807Z,13.70
2018-04-12T01:01:00.282Z,13.70
2018-04-12T01:03:27.749Z,13.60
2018-04-12T01:05:55.291Z,13.60
2018-04-12T01:08:22.874Z,13.60
2018-04-12T01:10:50.341Z,13.50
2018-04-12T01:13:17.808Z,13.50
2018-04-12T01:15:45.280Z,13.50
2018-04-12T01:18:12.813Z,13.50
2018-04-12T01:20:40.292Z,13.40
2018-04-12T01:23:07.778Z,13.40
2018-04-12T01:25:35.709Z,13.30
2018-04-12T01:28:03.182Z,13.30
2018-04-12T01:30:30.690Z,13.30
2018-04-12T01:33:10.116Z,13.20
2018-04-12T01:35:37.573Z,13.20
2018-04-12T01:38:05.500Z,13.10
2018-04-12T01:40:32.981Z,13.10
2018-04-12T01:43:00.539Z,13.10
2018-04-12T01:45:28.004Z,13.00
2018-04-12T01:47:55.465Z,13.00
2018-04-12T01:50:22.923Z,13.00
2018-04-12T01:52:50.420Z,12.90
2018-04-12T01:55:18.269Z,12.90
2018-04-12T01:57:45.733Z,12.90
2018-04-12T02:00:13.215Z,12.90
2018-04-12T02:02:41.106Z,12.80
2018-04-12T02:05:08.616Z,12.80
2018-04-12T02:07:36.087Z,12.80
2018-04-12T02:10:03.561Z,12.80
2018-04-12T02:12:31.442Z,12.80
2018-04-12T02:14:59.301Z,12.80
2018-04-12T02:17:26.812Z,12.80
2018-04-12T02:19:54.321Z,12.80
2018-04-12T02:22:21.825Z,12.90
2018-04-12T02:24:58.915Z,12.90
2018-04-12T02:27:26.432Z,12.90
2018-04-12T02:29:53.964Z,12.90
2018-04-12T02:32:21.606Z,12.90
2018-04-12T02:34:49.075Z,12.90
2018-04-12T02:37:16.543Z,12.90
2018-04-12T02:39:44.046Z,12.90
2018-04-12T02:42:11.533Z,12.90
2018-04-12T02:44:39.061Z,12.90
2018-04-12T02:47:06.624Z,12.90
2018-04-12T02:49:34.080Z,12.90
2018-04-12T02:52:01.649Z,12.90
2018-04-12T02:54:29.208Z,12.90
2018-04-12T02:56:56.732Z,13.00
2018-04-12T02:59:24.196Z,12.90
2018-04-12T03:01:51.657Z,12.90
2018-04-12T03:04:19.181Z,12.90
2018-04-12T03:06:46.812Z,12.90
2018-04-12T03:09:14.278Z,12.90
2018-04-12T03:11:41.745Z,12.90
2018-04-12T03:14:09.317Z,12.90
2018-04-12T03:16:36.784Z,12.90
2018-04-12T03:19:04.567Z,12.90
2018-04-12T03:21:32.024Z,12.90
2018-04-12T03:23:59.574Z,12.90
2018-04-12T03:26:27.047Z,12.90
2018-04-12T03:28:54.610Z,12.90
2018-04-12T03:31:22.090Z,12.90
2018-04-12T03:33:49.959Z,12.90
2018-04-12T03:36:17.818Z,12.90
2018-04-12T03:38:45.280Z,12.90
2018-04-12T03:41:12.744Z,13.00
2018-04-12T03:43:40.263Z,13.00
2018-04-12T03:46:07.766Z,13.00
2018-04-12T03:48:35.296Z,13.00
2018-04-12T03:51:02.703Z,13.00
2018-04-12T03:53:30.548Z,13.10
2018-04-12T03:55:58.093Z,13.10
2018-04-12T03:58:25.580Z,13.20
2018-04-12T04:00:53.040Z,13.20
2018-04-12T04:03:20.508Z,13.20
2018-04-12T04:08:22.696Z,13.20
2018-04-12T04:10:50.353Z,13.20
2018-04-12T04:13:18.119Z,13.20
2018-04-12T04:15:57.652Z,13.20
2018-04-12T04:18:37.030Z,13.20
2018-04-12T04:21:09.825Z,13.20
2018-04-12T04:23:37.813Z,13.20
2018-04-12T04:26:05.321Z,13.20
2018-04-12T04:28:32.892Z,13.20
2018-04-12T04:31:00.446Z,13.30
2018-04-12T04:33:28.001Z,13.30
2018-04-12T04:35:55.567Z,13.30
2018-04-12T04:38:23.054Z,13.30
2018-04-12T04:40:50.598Z,13.40
2018-04-12T04:43:18.114Z,13.50
2018-04-12T04:45:45.594Z,13.50
2018-04-12T04:48:13.127Z,13.60
2018-04-12T04:50:40.984Z,13.70
2018-04-12T04:53:08.949Z,13.70
2018-04-12T04:55:37.529Z,13.70
2018-04-12T04:58:05.978Z,13.80
2018-04-12T05:00:33.480Z,13.80
2018-04-12T05:03:00.944Z,13.90
2018-04-12T05:05:28.403Z,13.90
2018-04-12T05:07:55.923Z,13.90
2018-04-12T05:10:23.395Z,13.90
2018-04-12T05:12:50.884Z,14.00
2018-04-12T05:15:18.346Z,14.00
2018-04-12T05:17:45.820Z,14.10
2018-04-12T05:20:13.343Z,14.10
2018-04-12T05:22:40.825Z,14.10
2018-04-12T05:25:08.284Z,14.20
2018-04-12T05:27:35.740Z,14.20
2018-04-12T05:30:03.202Z,14.30
2018-04-12T05:32:30.808Z,14.30
2018-04-12T05:34:58.363Z,14.30
2018-04-12T05:37:25.813Z,14.30
2018-04-12T05:39:53.369Z,14.40
2018-04-12T05:42:20.892Z,14.50
2018-04-12T05:44:48.422Z,14.50
2018-04-12T05:47:16.284Z,14.50
2018-04-12T05:49:43.845Z,14.50
2018-04-12T05:52:11.313Z,14.60
2018-04-12T05:54:38.770Z,14.60
2018-04-12T05:57:06.249Z,14.70
2018-04-12T05:59:34.208Z,14.70
2018-04-12T06:02:01.776Z,14.70
2018-04-12T06:04:29.243Z,14.80
2018-04-12T06:06:56.780Z,14.80
2018-04-12T06:09:24.289Z,14.90
2018-04-12T06:11:51.760Z,15.00
2018-04-12T06:14:19.228Z,15.00
2018-04-12T06:16:47.682Z,15.00
2018-04-12T06:19:15.621Z,15.10
2018-04-12T06:21:43.186Z,15.10
2018-04-12T06:24:10.662Z,15.10
2018-04-12T06:26:38.138Z,15.20
2018-04-12T06:29:05.600Z,15.20
2018-04-12T06:31:33.055Z,15.30
2018-04-12T06:34:00.643Z,15.30
2018-04-12T06:36:28.088Z,15.40
2018-04-12T06:38:55.634Z,15.40
2018-04-12T06:41:23.221Z,15.40
2018-04-12T06:43:51.078Z,15.60
2018-04-12T06:46:18.729Z,15.60
2018-04-12T06:48:46.315Z,15.60
2018-04-12T06:51:13.772Z,15.70
2018-04-12T06:53:41.243Z,15.70
2018-04-12T06:56:08.693Z,15.70
2018-04-12T06:58:36.217Z,15.80
2018-04-12T07:01:03.682Z,15.80
2018-04-12T07:03:31.380Z,15.80
2018-04-12T07:05:59.247Z,15.80
2018-04-12T07:08:27.014Z,15.80
2018-04-12T07:10:54.549Z,15.90
2018-04-12T07:13:22.221Z,15.90
2018-04-12T07:15:49.742Z,15.90
2018-04-12T07:18:17.696Z,16.00
2018-04-12T07:20:45.380Z,16.00
2018-04-12T07:23:13.295Z,16.20
2018-04-12T07:25:40.881Z,16.20
2018-04-12T07:28:09.067Z,16.20
2018-04-12T07:30:36.539Z,16.20
2018-04-12T07:33:04.016Z,16.30
2018-04-12T07:35:31.984Z,16.40
2018-04-12T07:37:59.615Z,16.40
2018-04-12T07:40:27.168Z,16.50
2018-04-12T07:42:54.820Z,16.60
2018-04-12T07:45:22.301Z,16.70
2018-04-12T07:47:49.837Z,16.80
2018-04-12T07:50:17.305Z,16.90
2018-04-12T07:52:46.443Z,16.90
2018-04-12T07:55:13.909Z,17.00
2018-04-12T07:57:41.578Z,17.00
2018-04-12T08:00:09.463Z,17.00
2018-04-12T08:02:36.940Z,17.10
2018-04-12T08:05:04.808Z,17.20
2018-04-12T08:07:32.373Z,17.30
2018-04-12T08:10:00.901Z,17.30
2018-04-12T08:12:29.180Z,17.30
2018-04-12T08:14:57.102Z,17.40
2018-04-12T08:17:24.549Z,17.40
2018-04-12T08:19:52.041Z,17.40
2018-04-12T08:22:20.049Z,17.60
2018-04-12T08:24:47.536Z,17.60
2018-04-12T08:27:14.993Z,17.60
2018-04-12T08:29:42.468Z,17.60
2018-04-12T08:32:10.000Z,17.70
2018-04-12T08:34:37.507Z,17.80
2018-04-12T08:37:05.040Z,17.80
2018-04-12T08:39:32.497Z,17.90
2018-04-12T08:42:00.301Z,18.00
2018-04-12T08:44:28.076Z,18.00
2018-04-12T08:46:55.561Z,18.10
2018-04-12T08:49:23.463Z,18.20
2018-04-12T08:51:51.209Z,18.20
2018-04-12T08:54:19.264Z,18.50
2018-04-12T08:56:46.829Z,18.50
2018-04-12T08:59:14.392Z,18.60
2018-04-12T09:01:41.923Z,18.70
2018-04-12T09:04:09.405Z,18.80
2018-04-12T09:06:36.887Z,18.90
2018-04-12T09:09:04.744Z,19.20
2018-04-12T09:11:32.304Z,19.20
2018-04-12T09:13:59.976Z,19.40
2018-04-12T09:16:27.421Z,19.60
2018-04-12T09:18:54.995Z,19.90
2018-04-12T09:21:22.459Z,20.10
2018-04-12T09:23:50.921Z,20.30
2018-04-12T09:26:18.458Z,20.60
2018-04-12T09:28:45.916Z,20.90
2018-04-12T09:31:13.388Z,21.20
2018-04-12T09:33:41.150Z,21.60
2018-04-12T09:36:08.660Z,21.80
2018-04-12T09:38:36.194Z,22.00
2018-04-12T09:41:03.697Z,22.20
2018-04-12T09:43:31.371Z,22.20
2018-04-12T09:45:58.836Z,22.30
2018-04-12T09:48:26.379Z,22.30
2018-04-12T09:50:53.901Z,22.30
2018-04-12T09:53:21.398Z,22.30
2018-04-12T09:55:48.971Z,22.30
2018-04-12T09:58:16.641Z,22.40
2018-04-12T10:00:59.040Z,22.50
2018-04-12T10:03:26.638Z,22.70
2018-04-12T10:06:00.506Z,22.90
2018-04-12T10:08:28.160Z,22.90
2018-04-12T10:10:56.329Z,22.90
2018-04-12T10:13:23.868Z,22.90
2018-04-12T10:15:51.372Z,22.80
2018-04-12T10:18:19.168Z,22.60
2018-04-12T10:20:46.682Z,22.50
2018-04-12T10:23:14.173Z,22.50
2018-04-12T10:25:41.650Z,22.40
2018-04-12T10:28:09.471Z,22.40
2018-04-12T10:30:36.999Z,22.30
2018-04-12T10:33:04.893Z,22.30
2018-04-12T10:35:32.849Z,22.30
2018-04-12T10:38:00.806Z,22.30
2018-04-12T10:40:28.329Z,22.30
2018-04-12T10:42:56.154Z,22.30
2018-04-12T10:45:24.450Z,22.20
2018-04-12T10:47:52.371Z,22.10
2018-04-12T10:50:20.176Z,22.20
2018-04-12T10:52:47.874Z,22.10
2018-04-12T10:55:15.391Z,22.10
2018-04-12T10:57:42.972Z,22.00
2018-04-12T11:00:10.436Z,22.00
2018-04-12T11:02:38.840Z,21.90
2018-04-12T11:05:06.461Z,21.90
2018-04-12T11:07:34.047Z,21.90
2018-04-12T11:10:01.943Z,22.00
2018-04-12T11:12:29.555Z,22.00
2018-04-12T11:14:57.214Z,22.10
2018-04-12T11:17:24.752Z,22.10
2018-04-12T11:19:52.285Z,22.10
2018-04-12T11:22:20.348Z,22.00
2018-04-12T11:24:48.787Z,22.00
2018-04-12T11:27:16.815Z,22.00
2018-04-12T11:29:44.859Z,22.00
2018-04-12T11:32:12.426Z,22.00
2018-04-12T11:34:39.945Z,22.00
2018-04-12T11:37:08.028Z,21.80
2018-04-12T11:39:35.711Z,21.80
2018-04-12T11:42:03.611Z,21.80
2018-04-12T11:44:31.086Z,21.80
2018-04-12T11:46:58.637Z,21.90
2018-04-12T11:49:26.352Z,21.90
2018-04-12T11:51:53.879Z,21.90
2018-04-12T11:54:21.367Z,21.90
2018-04-12T11:56:48.924Z,21.80
2018-04-12T11:59:16.805Z,21.80
2018-04-12T12:01:44.724Z,21.80
2018-04-12T12:04:12.221Z,21.80
2018-04-12T12:06:39.710Z,21.70
2018-04-12T12:09:07.310Z,21.70
2018-04-12T12:11:34.904Z,21.60
2018-04-12T12:14:02.736Z,21.50
2018-04-12T12:16:30.451Z,21.40
2018-04-12T12:18:58.421Z,21.30
2018-04-12T12:21:25.888Z,21.30
2018-04-12T12:23:53.809Z,21.30
2018-04-12T12:26:21.663Z,21.40
2018-04-12T12:28:49.149Z,21.40
2018-04-12T12:31:16.637Z,21.50
2018-04-12T12:33:44.148Z,21.70
2018-04-12T12:36:11.705Z,21.70
2018-04-12T12:38:39.212Z,21.60
2018-04-12T12:41:06.821Z,21.60
2018-04-12T12:43:34.703Z,21.40
2018-04-12T12:46:02.187Z,21.40
2018-04-12T12:48:29.701Z,21.30
2018-04-12T12:50:57.185Z,21.30
2018-04-12T12:53:24.705Z,21.30
2018-04-12T12:55:52.306Z,21.30
2018-04-12T12:58:20.173Z,21.30
2018-04-12T13:00:48.083Z,21.40
2018-04-12T13:03:15.590Z,21.30
2018-04-12T13:05:43.110Z,21.40
2018-04-12T13:08:10.589Z,21.30
2018-04-12T13:10:38.092Z,21.30
2018-04-12T13:13:05.556Z,21.40
2018-04-12T13:15:33.127Z,21.50
2018-04-12T13:18:01.078Z,21.80
2018-04-12T13:20:28.550Z,21.80
2018-04-12T13:22:56.090Z,21.90
2018-04-12T13:25:24.177Z,22.10
2018-04-12T13:27:52.208Z,22.30
2018-04-12T13:30:19.886Z,22.40
2018-04-12T13:32:47.371Z,22.40
2018-04-12T13:35:14.980Z,22.30
2018-04-12T13:37:43.695Z,22.40
2018-04-12T13:40:11.208Z,22.40
2018-04-12T13:42:38.739Z,22.40
2018-04-12T13:45:06.397Z,22.40
2018-04-12T13:47:33.878Z,22.50
2018-04-12T13:50:01.373Z,22.60
2018-04-12T13:52:28.834Z,22.50
2018-04-12T13:54:56.414Z,22.50
2018-04-12T13:57:24.368Z,22.50
2018-04-12T13:59:51.847Z,22.50
2018-04-12T14:02:19.727Z,22.30
2018-04-12T14:04:47.661Z,22.30
2018-04-12T14:07:15.141Z,22.30
2018-04-12T14:09:42.629Z,22.30
2018-04-12T14:12:11.353Z,22.30
2018-04-12T14:14:38.848Z,22.40
2018-04-12T14:17:07.185Z,22.40
2018-04-12T14:19:34.949Z,22.40
2018-04-12T14:22:02.487Z,22.40
2018-04-12T14:24:30.340Z,22.30
2018-04-12T14:26:57.831Z,22.30
2018-04-12T14:29:25.785Z,22.20
2018-04-12T14:31:53.704Z,22.10
2018-04-12T14:34:21.181Z,22.10
2018-04-12T14:36:48.662Z,22.10
2018-04-12T14:39:16.433Z,22.20
2018-04-12T14:41:43.914Z,22.10
2018-04-12T14:44:11.879Z,22.20
2018-04-12T14:46:39.351Z,22.20
2018-04-12T14:49:07.218Z,22.30
2018-04-12T14:51:35.084Z,22.30
2018-04-12T14:54:02.637Z,22.30
2018-04-12T14:56:30.154Z,22.40
2018-04-12T14:58:57.692Z,22.50
2018-04-12T15:01:25.558Z,22.60
2018-04-12T15:03:53.412Z,22.60
2018-04-12T15:06:20.959Z,22.60
2018-04-12T15:08:48.446Z,22.60
2018-04-12T15:11:15.916Z,22.60
2018-04-12T15:13:43.870Z,22.50
2018-04-12T15:16:11.326Z,22.50
2018-04-12T15:18:38.797Z,22.40
2018-04-12T15:21:06.499Z,22.40
2018-04-12T15:23:34.220Z,22.30
2018-04-12T15:26:01.954Z,22.30
2018-04-12T15:28:29.512Z,22.20
2018-04-12T15:30:57.256Z,22.20
2018-04-12T15:33:25.121Z,22.10
2018-04-12T15:35:53.063Z,22.00
2018-04-12T15:38:20.550Z,22.00
2018-04-12T15:40:48.083Z,22.00
2018-04-12T15:43:15.539Z,22.00
2018-04-12T15:45:43.241Z,21.90
2018-04-12T15:48:10.705Z,21.90
2018-04-12T15:50:38.231Z,22.00
2018-04-12T15:53:06.121Z,22.10
2018-04-12T15:55:33.580Z,22.10
2018-04-12T15:58:01.065Z,22.10
2018-04-12T16:00:28.524Z,22.10
2018-04-12T16:02:56.090Z,22.10
2018-04-12T16:05:23.645Z,22.10
2018-04-12T16:07:51.209Z,22.10
2018-04-12T16:10:18.779Z,22.10
2018-04-12T16:12:46.249Z,22.10
2018-04-12T16:15:13.794Z,22.10
2018-04-12T16:17:41.247Z,22.10
2018-04-12T16:20:08.712Z,22.20
2018-04-12T16:22:36.295Z,22.20
2018-04-12T16:25:03.756Z,22.30
2018-04-12T16:27:31.284Z,22.30
2018-04-12T16:29:58.780Z,22.30
2018-04-12T16:32:26.229Z,22.30
2018-04-12T16:34:53.772Z,22.30
2018-04-12T16:37:21.241Z,22.30
2018-04-12T16:39:48.709Z,22.20
2018-04-12T16:42:16.176Z,22.20
2018-04-12T16:44:43.814Z,22.00
2018-04-12T16:47:11.322Z,22.00
2018-04-12T16:49:38.798Z,21.90
2018-04-12T16:52:06.276Z,21.80
2018-04-12T16:54:34.166Z,21.70
2018-04-12T16:57:01.630Z,21.70
2018-04-12T16:59:29.173Z,21.60
2018-04-12T17:01:57.107Z,21.40
2018-04-12T17:04:24.610Z,21.40
2018-04-12T17:06:52.471Z,21.20
2018-04-12T17:09:20.430Z,21.20
2018-04-12T17:11:47.968Z,21.10
2018-04-12T17:14:15.427Z,21.00
2018-04-12T17:16:42.948Z,21.00
2018-04-12T17:19:10.578Z,20.90
2018-04-12T17:21:37.992Z,20.80
2018-04-12T17:24:05.469Z,20.70
2018-04-12T17:26:32.952Z,20.60
2018-04-12T17:29:00.429Z,20.60
2018-04-12T17:31:27.895Z,20.50
2018-04-12T17:33:55.534Z,20.40
2018-04-12T17:36:23.117Z,20.30
2018-04-12T17:38:50.631Z,20.20
2018-04-12T17:41:18.305Z,20.20
2018-04-12T17:43:45.806Z,20.10
2018-04-12T17:46:13.540Z,20.00
2018-04-12T17:48:41.214Z,20.00
2018-04-12T17:51:08.732Z,19.90
2018-04-12T17:53:36.288Z,19.80
2018-04-12T17:56:04.610Z,19.80
2018-04-12T17:58:32.120Z,19.70
2018-04-12T18:00:59.836Z,19.70
2018-04-12T18:03:27.361Z,19.60
2018-04-12T18:05:55.399Z,19.50
2018-04-12T18:08:22.951Z,19.50
2018-04-12T18:10:51.063Z,19.40
2018-04-12T18:13:19.996Z,19.40
2018-04-12T18:15:47.520Z,19.30
2018-04-12T18:18:15.107Z,19.20
2018-04-12T18:20:43.086Z,19.10
2018-04-12T18:23:10.694Z,19.10
2018-04-12T18:25:38.197Z,19.00
2018-04-12T18:28:05.814Z,18.90
2018-04-12T18:30:33.317Z,18.80
2018-04-12T18:33:00.815Z,18.80
2018-04-12T18:35:28.861Z,18.60
2018-04-12T18:37:56.441Z,18.60
2018-04-12T18:40:23.956Z,18.60
2018-04-12T18:42:51.491Z,18.50
2018-04-12T18:45:19.492Z,18.40
2018-04-12T18:47:47.011Z,18.40
2018-04-12T18:50:14.983Z,18.30
2018-04-12T18:52:42.514Z,18.30
2018-04-12T18:55:10.025Z,18.20
2018-04-12T18:57:37.926Z,18.10
2018-04-12T19:00:05.416Z,18.10
2018-04-12T19:02:33.001Z,18.00
2018-04-12T19:05:01.353Z,17.80
2018-04-12T19:07:28.919Z,17.80
2018-04-12T19:09:56.464Z,17.80
2018-04-12T19:12:23.975Z,17.70
2018-04-12T19:14:51.592Z,17.60
2018-04-12T19:17:19.201Z,17.60
2018-04-12T19:19:46.814Z,17.50
2018-04-12T19:22:14.324Z,17.50
2018-04-12T19:24:41.943Z,17.40
2018-04-12T19:27:09.633Z,17.30
2018-04-12T19:29:37.174Z,17.30
2018-04-12T19:32:04.683Z,17.20
2018-04-12T19:34:32.198Z,17.20
2018-04-12T19:36:59.705Z,17.20
2018-04-12T19:39:27.271Z,17.10
2018-04-12T19:41:54.784Z,17.10
2018-04-12T19:44:22.313Z,17.00
2018-04-12T19:46:49.801Z,17.00
2018-04-12T19:49:17.299Z,16.90
2018-04-12T19:51:44.900Z,16.90
2018-04-12T19:54:12.518Z,16.80
2018-04-12T19:56:40.083Z,16.80
2018-04-12T19:59:07.926Z,16.70
2018-04-12T20:01:35.837Z,16.60
2018-04-12T20:04:03.426Z,16.60
2018-04-12T20:06:31.048Z,16.60
2018-04-12T20:08:58.641Z,16.60
2018-04-12T20:11:26.150Z,16.50
2018-04-12T20:13:54.149Z,16.50
2018-04-12T20:16:22.603Z,16.50
2018-04-12T20:18:50.819Z,16.40
2018-04-12T20:21:18.317Z,16.40
2018-04-12T20:23:46.771Z,16.30
2018-04-12T20:26:14.288Z,16.30
2018-04-12T20:28:42.489Z,16.10
2018-04-12T20:31:10.080Z,16.10
2018-04-12T20:33:37.687Z,16.10
2018-04-12T20:36:05.228Z,16.10
2018-04-12T20:38:32.734Z,16.00
2018-04-12T20:41:00.725Z,15.90
2018-04-12T20:43:28.384Z,15.90
2018-04-12T20:45:55.954Z,15.80
2018-04-12T20:48:23.451Z,15.80
2018-04-12T20:50:50.987Z,15.70
2018-04-12T20:53:18.582Z,15.70
2018-04-12T20:55:46.096Z,15.60
2018-04-12T20:58:13.988Z,15.50
2018-04-12T21:00:41.502Z,15.50
2018-04-12T21:03:08.993Z,15.50
2018-04-12T21:05:36.957Z,15.40
2018-04-12T21:08:04.839Z,15.40
2018-04-12T21:10:32.359Z,15.40
2018-04-12T21:12:59.862Z,15.30
2018-04-12T21:15:27.760Z,15.20
2018-04-12T21:17:55.325Z,15.20
2018-04-12T21:20:22.863Z,15.10
2018-04-12T21:22:50.840Z,15.00
2018-04-12T21:25:18.713Z,15.00
2018-04-12T21:27:47.022Z,15.00
2018-04-12T21:30:14.588Z,15.00
2018-04-12T21:32:42.129Z,15.00
2018-04-12T21:35:10.132Z,14.90
2018-04-12T21:37:37.660Z,14.90
2018-04-12T21:40:05.638Z,14.80
2018-04-12T21:42:33.691Z,14.80
2018-04-12T21:45:01.275Z,14.80
2018-04-12T21:47:29.267Z,14.80
2018-04-12T21:49:56.777Z,14.80
2018-04-12T21:52:24.498Z,14.70
2018-04-12T21:54:52.117Z,14.70
2018-04-12T21:57:19.630Z,14.70
2018-04-12T21:59:47.196Z,14.60
2018-04-12T22:02:15.755Z,14.50
2018-04-12T22:04:43.651Z,14.50
2018-04-12T22:07:11.223Z,14.50
2018-04-12T22:09:38.719Z,14.40
2018-04-12T22:12:06.190Z,14.40
2018-04-12T22:14:33.712Z,14.30
2018-04-12T22:17:01.256Z,14.30
2018-04-12T22:19:29.239Z,14.20
2018-04-12T22:21:56.755Z,14.20
2018-04-12T22:24:24.221Z,14.20
2018-04-12T22:26:52.157Z,14.10
2018-04-12T22:29:19.668Z,14.10
2018-04-12T22:31:47.172Z,14.10
2018-04-12T22:34:16.139Z,14.00
2018-04-12T22:36:43.641Z,14.00
2018-04-12T22:39:11.127Z,14.00
2018-04-12T22:41:38.735Z,13.90
2018-04-12T22:44:06.418Z,13.90
2018-04-12T22:46:33.894Z,13.80
2018-04-12T22:49:01.457Z,13.80
2018-04-12T22:51:28.989Z,13.70
2018-04-12T22:53:56.884Z,13.60
2018-04-12T22:56:24.429Z,13.70
2018-04-12T22:58:51.946Z,13.60
2018-04-12T23:01:19.571Z,13.60
2018-04-12T23:03:47.086Z,13.60
2018-04-12T23:06:14.566Z,13.60
2018-04-12T23:08:42.148Z,13.50
2018-04-12T23:11:09.712Z,13.50
2018-04-12T23:13:37.188Z,13.50
2018-04-12T23:16:05.159Z,13.50
2018-04-12T23:18:32.733Z,13.50
2018-04-12T23:21:00.398Z,13.50
2018-04-12T23:23:27.948Z,13.40
2018-04-12T23:25:55.853Z,13.40
2018-04-12T23:28:23.346Z,13.40
2018-04-12T23:30:50.826Z,13.40
2018-04-12T23:33:18.349Z,13.40
2018-04-12T23:35:45.885Z,13.40
2018-04-12T23:38:13.418Z,13.40
2018-04-12T23:40:41.306Z,13.40
2018-04-12T23:43:08.843Z,13.40
2018-04-12T23:45:36.401Z,13.40
2018-04-12T23:48:05.374Z,13.40
2018-04-12T23:50:32.893Z,13.40
2018-04-12T23:53:00.801Z,13.40
2018-04-12T23:55:28.276Z,13.30
2018-04-12T23:57:55.871Z,13.30
